Time;durP1;ratioP1;P1;durP2;ratioP2;P2;SDS_P1;SDS_P2;PMS_P1;PMS_P2;Temp;Humidity;BMP_temperature;BMP_pressure;BME280_temperature;BME280_humidity;BME280_pressure;Samples;Min_cycle;Max_cycle;Signal;HPM_P1;HPM_P2
2022/10/25 06:16:29;;;;;;;;;1.00;1.00;;;;;19.64;59.97;101358.28;5058316;28;45450;-87
2022/10/25 06:18:54;;;;;;;;;0.67;0.67;;;;;19.77;59.40;101357.28;5068403;28;45450;-77
2022/10/25 06:21:22;;;;;;;;;0.67;0.67;;;;;19.95;59.34;101350.31;5063845;28;45947;-79
2022/10/25 06:23:47;;;;;;;;;0.00;0.00;;;;;20.18;59.53;101344.00;5073146;27;45580;-74
2022/10/25 06:26:25;;;;;;;;;1.00;1.00;;;;;20.45;58.38;101346.16;5069605;28;56283;-75
2022/10/25 06:28:53;;;;;;;;;0.00;0.00;;;;;20.73;58.31;101356.38;5069490;28;45531;-78
2022/10/25 06:31:19;;;;;;;;;0.33;0.33;;;;;21.00;57.68;101352.22;5065690;27;45542;-79
2022/10/25 06:33:44;;;;;;;;;1.00;1.00;;;;;21.23;57.22;101347.50;5067634;28;45746;-78
2022/10/25 06:36:18;;;;;;;;;1.00;1.00;;;;;21.47;56.91;101357.06;5071384;28;45511;-81
2022/10/25 06:38:45;;;;;;;;;4.00;1.67;;;;;21.69;56.18;101352.38;5071152;27;45340;-78
2022/10/25 06:41:12;;;;;;;;;1.67;0.33;;;;;21.90;56.05;101354.13;5071893;28;45374;-78
2022/10/25 06:43:38;;;;;;;;;2.00;0.00;;;;;22.10;55.60;101363.06;5069998;28;45350;-80
2022/10/25 06:46:34;;;;;;;;;1.00;0.00;;;;;22.31;55.58;101365.59;5068087;27;46110;-79
2022/10/25 06:49:00;;;;;;;;;3.00;1.67;;;;;22.48;55.11;101366.69;5067333;27;45871;-77
2022/10/25 06:51:27;;;;;;;;;1.00;1.00;;;;;22.62;54.90;101357.31;5084832;27;45391;-75
2022/10/25 06:53:54;;;;;;;;;1.67;1.67;;;;;22.77;54.11;101364.94;5061345;27;46759;-77
2022/10/25 06:56:19;;;;;;;;;2.00;1.00;;;;;22.88;54.07;101367.44;5060198;27;45391;-78
2022/10/25 06:58:44;;;;;;;;;1.33;0.67;;;;;23.00;53.35;101375.34;5054381;28;46103;-76
2022/10/25 07:01:12;;;;;;;;;4.00;1.00;;;;;23.12;53.29;101376.00;5069429;27;45487;-77
2022/10/25 07:03:38;;;;;;;;;2.33;1.00;;;;;23.21;52.69;101377.81;5063476;27;45511;-81
2022/10/25 07:06:08;;;;;;;;;3.67;1.00;;;;;23.29;52.83;101391.47;5055449;28;46103;-79
2022/10/25 07:08:35;;;;;;;;;1.00;1.00;;;;;23.37;52.31;101384.47;5057605;28;45549;-77
2022/10/25 07:11:02;;;;;;;;;1.00;1.00;;;;;23.48;52.26;101388.81;5058584;28;45525;-77
2022/10/25 07:13:29;;;;;;;;;0.00;0.00;;;;;23.55;51.83;101388.03;5054123;28;45442;-78
2022/10/25 07:16:06;;;;;;;;;1.00;1.00;;;;;23.64;51.96;101385.44;5071552;27;46187;-79
2022/10/25 07:18:32;;;;;;;;;0.00;0.00;;;;;23.75;51.68;101392.50;5080373;27;45718;-81
2022/10/25 07:21:03;;;;;;;;;1.00;1.00;;;;;23.73;51.49;101380.94;5083892;27;45426;-78
2022/10/25 07:23:29;;;;;;;;;0.33;0.33;;;;;23.82;50.94;101394.44;5085541;27;46476;-78
2022/10/25 07:25:55;;;;;;;;;1.00;1.00;;;;;23.85;51.09;101395.09;5087142;27;45423;-79
2022/10/25 07:28:20;;;;;;;;;1.00;1.00;;;;;23.87;51.45;101387.69;5074054;28;45427;-80
2022/10/25 07:30:46;;;;;;;;;0.00;0.00;;;;;23.94;50.84;101405.03;5067440;28;45499;-82
2022/10/25 07:33:13;;;;;;;;;1.67;1.67;;;;;23.95;50.77;101402.16;5077328;28;45722;-86
2022/10/25 07:35:39;;;;;;;;;0.00;0.00;;;;;23.96;50.75;101392.19;5077094;28;45380;-87
2022/10/25 07:38:04;;;;;;;;;0.33;0.33;;;;;23.95;50.46;101393.19;5058332;28;45391;-89
2022/10/25 07:40:30;;;;;;;;;1.00;1.00;;;;;23.95;50.33;101399.44;5058741;28;45459;-86
2022/10/25 07:42:55;;;;;;;;;1.00;1.00;;;;;23.93;50.29;101396.06;5077900;27;45376;-82
2022/10/25 07:45:20;;;;;;;;;0.00;0.00;;;;;23.93;50.36;101400.63;5074779;27;52811;-80
2022/10/25 07:47:45;;;;;;;;;0.67;0.67;;;;;23.92;50.28;101401.63;5072554;27;45387;-80
2022/10/25 07:50:11;;;;;;;;;1.00;1.00;;;;;23.93;50.00;101409.63;5061663;28;56796;-84
2022/10/25 07:52:36;;;;;;;;;4.00;1.00;;;;;23.97;50.35;101409.28;5069673;28;45427;-75
2022/10/25 07:55:01;;;;;;;;;1.00;1.00;;;;;24.02;50.59;101409.66;5059227;28;63210;-75
2022/10/25 07:57:27;;;;;;;;;0.33;0.33;;;;;24.06;50.09;101400.22;5058602;28;45656;-75
2022/10/25 07:59:52;;;;;;;;;0.67;0.67;;;;;24.12;50.22;101409.63;5062872;28;51443;-76
2022/10/25 08:02:17;;;;;;;;;1.00;1.00;;;;;24.14;49.75;101405.75;5038852;28;50818;-75
2022/10/25 08:04:43;;;;;;;;;1.33;1.00;;;;;24.19;50.16;101402.56;5069086;28;55941;-75
2022/10/25 08:07:08;;;;;;;;;0.00;0.00;;;;;24.23;49.61;101412.09;5076004;28;45488;-76
2022/10/25 08:09:33;;;;;;;;;3.00;0.00;;;;;24.29;49.85;101395.19;5061352;28;45487;-83
2022/10/25 08:11:59;;;;;;;;;0.33;0.33;;;;;24.37;49.39;101390.81;5067321;28;49734;-80
2022/10/25 08:14:24;;;;;;;;;0.00;0.00;;;;;24.37;49.44;101391.69;5059693;28;45932;-75
2022/10/25 08:16:49;;;;;;;;;1.00;1.00;;;;;24.40;49.57;101391.34;5067704;27;45647;-76
2022/10/25 08:19:15;;;;;;;;;1.00;1.00;;;;;24.45;49.35;101383.59;5074764;28;53408;-76
2022/10/25 08:21:40;;;;;;;;;1.00;1.00;;;;;24.55;49.11;101382.63;5061412;28;51851;-76
2022/10/25 08:24:05;;;;;;;;;0.00;0.00;;;;;24.63;49.26;101377.25;5074556;28;51571;-76
2022/10/25 08:26:31;;;;;;;;;2.00;2.00;;;;;24.71;48.99;101387.31;5070851;27;45483;-75
2022/10/25 08:28:56;;;;;;;;;0.67;0.67;;;;;24.74;49.01;101382.41;5076672;28;55906;-77
2022/10/25 08:31:21;;;;;;;;;1.00;1.00;;;;;24.76;48.79;101375.97;5068658;28;45573;-78
2022/10/25 08:33:47;;;;;;;;;1.00;1.00;;;;;24.76;48.88;101381.41;5072761;28;60582;-78
2022/10/25 08:36:12;;;;;;;;;2.00;2.00;;;;;24.78;48.90;101376.66;5076498;28;45396;-77
2022/10/25 08:38:38;;;;;;;;;1.00;1.00;;;;;24.88;48.82;101382.00;5069169;28;45507;-79
2022/10/25 08:41:25;;;;;;;;;1.33;1.33;;;;;24.94;48.35;101381.34;5044876;28;45399;-79
2022/10/25 08:43:57;;;;;;;;;2.00;2.00;;;;;24.97;48.32;101379.16;5072746;28;46257;-76
2022/10/25 08:46:29;;;;;;;;;1.00;1.00;;;;;25.01;48.22;101387.81;5071202;27;45494;-79
2022/10/25 08:49:13;;;;;;;;;0.00;0.00;;;;;25.10;47.99;101380.59;5068423;28;45421;-77
2022/10/25 08:51:42;;;;;;;;;0.00;0.00;;;;;25.17;47.98;101384.31;5069119;28;45344;-78
2022/10/25 08:54:42;;;;;;;;;0.00;0.00;;;;;25.24;47.87;101387.25;5067985;28;46798;-77
2022/10/25 08:57:25;;;;;;;;;0.33;0.33;;;;;25.27;47.76;101390.47;5061757;28;45455;-78
2022/10/25 08:59:54;;;;;;;;;1.00;0.00;;;;;25.28;47.71;101388.63;5072128;28;45420;-77
2022/10/25 09:02:32;;;;;;;;;1.00;1.00;;;;;25.32;47.65;101394.56;5066363;28;45510;-79
2022/10/25 09:04:58;;;;;;;;;0.00;0.00;;;;;25.35;47.08;101383.38;5075855;28;45395;-78
2022/10/25 09:07:38;;;;;;;;;0.00;0.00;;;;;25.36;47.17;101385.06;5065833;28;45699;-77
2022/10/25 09:10:44;;;;;;;;;1.00;1.00;;;;;25.39;47.34;101382.03;5058125;28;45489;-76
2022/10/25 09:13:33;;;;;;;;;1.00;1.00;;;;;25.41;47.11;101381.88;4993247;28;46359;-77
2022/10/25 09:16:01;;;;;;;;;1.00;1.00;;;;;25.42;47.26;101370.81;4991574;28;45595;-76
2022/10/25 09:18:55;;;;;;;;;1.00;1.00;;;;;25.44;47.13;101376.94;4993704;28;45538;-76
2022/10/25 09:21:51;;;;;;;;;0.67;0.67;;;;;25.45;47.66;101381.34;5003649;28;45664;-78
2022/10/25 09:24:31;;;;;;;;;0.33;0.33;;;;;25.45;47.16;101394.09;4984593;28;45366;-78
2022/10/25 09:27:07;;;;;;;;;0.00;0.00;;;;;25.42;47.09;101394.44;4992559;28;45596;-75
2022/10/25 09:29:40;;;;;;;;;0.00;0.00;;;;;25.40;47.34;101389.16;4997470;28;45548;-75
2022/10/25 09:32:23;;;;;;;;;0.00;0.00;;;;;25.39;47.56;101390.19;4991530;28;45425;-84
2022/10/25 09:34:50;;;;;;;;;1.00;1.00;;;;;25.39;47.27;101382.88;5004942;28;45448;-83
2022/10/25 09:37:37;;;;;;;;;2.00;2.00;;;;;25.37;47.48;101390.34;4997477;28;45862;-80
2022/10/25 09:40:05;;;;;;;;;0.33;0.33;;;;;25.37;47.17;101392.19;4990385;28;45493;-81
2022/10/25 09:42:42;;;;;;;;;1.00;1.00;;;;;25.39;47.25;101393.72;5001078;28;45408;-81
2022/10/25 09:45:23;;;;;;;;;1.00;1.00;;;;;25.36;47.64;101398.66;4997925;28;45538;-81
2022/10/25 09:47:54;;;;;;;;;1.00;1.00;;;;;25.41;47.66;101390.03;4988426;28;45472;-81
2022/10/25 09:50:28;;;;;;;;;0.00;0.00;;;;;25.46;47.20;101390.38;5047656;28;45655;-82
2022/10/25 09:53:09;;;;;;;;;2.00;2.00;;;;;25.47;47.54;101387.47;5074536;28;45600;-81
2022/10/25 09:55:41;;;;;;;;;0.00;0.00;;;;;25.45;47.24;101386.78;5075155;28;45455;-82
2022/10/25 09:58:15;;;;;;;;;0.00;0.00;;;;;25.47;47.28;101392.91;5071967;28;45515;-82
2022/10/25 10:00:41;;;;;;;;;0.67;0.67;;;;;25.51;47.79;101380.69;5051397;28;45735;-82
2022/10/25 10:03:10;;;;;;;;;1.00;1.00;;;;;25.55;47.18;101380.38;5074394;28;45599;-81
2022/10/25 10:05:36;;;;;;;;;0.67;0.67;;;;;25.56;46.85;101382.94;5073663;28;45395;-82
2022/10/25 10:08:02;;;;;;;;;1.00;1.00;;;;;25.59;47.01;101381.75;5074603;28;45624;-81
2022/10/25 10:10:33;;;;;;;;;3.00;1.33;;;;;25.57;47.28;101379.22;5074152;28;52880;-81
2022/10/25 10:13:05;;;;;;;;;1.00;1.00;;;;;25.53;46.99;101372.38;5074889;28;45463;-81
2022/10/25 10:15:42;;;;;;;;;1.33;1.00;;;;;25.56;47.06;101379.38;5073346;27;45385;-82
2022/10/25 10:18:22;;;;;;;;;1.00;1.00;;;;;25.59;47.44;101392.63;5073663;27;45506;-81
2022/10/25 10:21:09;;;;;;;;;1.67;1.00;;;;;25.61;47.10;101380.56;5073595;28;45438;-82
2022/10/25 10:23:49;;;;;;;;;1.00;1.00;;;;;25.60;46.95;101378.03;5072581;28;45387;-82
2022/10/25 10:26:45;;;;;;;;;1.00;0.67;;;;;25.57;46.85;101373.78;5073887;28;45367;-79
2022/10/25 10:29:15;;;;;;;;;2.00;0.00;;;;;25.50;47.17;101372.72;5066066;28;45418;-75
2022/10/25 10:31:43;;;;;;;;;1.00;1.00;;;;;25.57;47.36;101381.06;5074368;28;45431;-75
2022/10/25 10:34:39;;;;;;;;;1.00;1.00;;;;;25.57;46.91;101372.91;5061421;28;45586;-77
2022/10/25 10:37:25;;;;;;;;;1.00;1.00;;;;;25.60;46.61;101373.44;5064317;28;46853;-82
2022/10/25 10:40:02;;;;;;;;;1.33;1.00;;;;;25.61;47.11;101377.00;5063988;28;45391;-82
2022/10/25 10:42:31;;;;;;;;;0.00;0.00;;;;;25.64;47.23;101369.38;5061524;28;45471;-80
2022/10/25 10:45:09;;;;;;;;;1.00;1.00;;;;;25.67;47.13;101370.91;5056385;27;45530;-79
2022/10/25 10:47:37;;;;;;;;;3.00;1.00;;;;;25.69;46.93;101362.56;5066507;27;45486;-82
2022/10/25 10:50:24;;;;;;;;;1.33;1.33;;;;;25.72;47.11;101357.66;5071747;28;46173;-80
2022/10/25 10:52:56;;;;;;;;;2.00;2.00;;;;;25.76;46.99;101352.72;5067295;28;45529;-81
2022/10/25 10:55:32;;;;;;;;;2.00;2.00;;;;;25.77;47.00;101351.69;5070296;28;45479;-80
2022/10/25 10:58:15;;;;;;;;;1.00;1.00;;;;;25.77;46.95;101351.69;5070157;27;45358;-80
2022/10/25 11:00:49;;;;;;;;;1.00;1.00;;;;;25.78;46.64;101337.94;5050283;28;45983;-80
2022/10/25 11:03:39;;;;;;;;;1.00;1.00;;;;;25.80;47.03;101337.78;5072904;28;45543;-81
2022/10/25 11:06:15;;;;;;;;;1.00;1.00;;;;;25.78;47.09;101339.81;5073285;28;45507;-78
2022/10/25 11:08:42;;;;;;;;;1.00;1.00;;;;;25.78;46.56;101331.66;5069852;27;45570;-79
2022/10/25 11:11:13;;;;;;;;;1.00;1.00;;;;;25.78;46.37;101337.09;5071949;27;45604;-77
2022/10/25 11:13:38;;;;;;;;;1.00;1.00;;;;;25.76;46.79;101337.25;5062919;27;45396;-78
2022/10/25 11:16:28;;;;;;;;;0.33;0.33;;;;;25.81;47.29;101334.03;5068782;27;45367;-77
2022/10/25 11:19:05;;;;;;;;;1.33;0.00;;;;;25.85;46.65;101329.09;5080206;27;45389;-78
2022/10/25 11:21:49;;;;;;;;;1.00;1.00;;;;;25.83;47.24;101328.44;5074400;28;46170;-77
2022/10/25 11:24:48;;;;;;;;;0.00;0.00;;;;;25.84;46.68;101324.69;5077103;28;45487;-78
2022/10/25 11:27:22;;;;;;;;;0.00;0.00;;;;;25.90;46.52;101327.59;5076596;28;45408;-78
2022/10/25 11:29:59;;;;;;;;;0.00;0.00;;;;;25.93;46.61;101323.66;5076703;28;45772;-78
2022/10/25 11:33:09;;;;;;;;;0.00;0.00;;;;;25.96;46.67;101322.47;5072569;28;45664;-78
2022/10/25 11:35:46;;;;;;;;;1.00;1.00;;;;;25.99;46.78;101319.44;5074871;28;45402;-78
2022/10/25 11:38:27;;;;;;;;;1.00;1.00;;;;;25.99;46.26;101319.44;5077059;28;45478;-78
2022/10/25 11:41:26;;;;;;;;;1.00;1.00;;;;;26.01;46.84;101323.66;5077141;28;45471;-78
2022/10/25 11:43:57;;;;;;;;;1.00;1.00;;;;;26.01;46.36;101323.66;5075442;28;46246;-78
2022/10/25 11:46:49;;;;;;;;;1.00;1.00;;;;;25.97;46.16;101322.31;5069815;27;45684;-77
2022/10/25 11:49:52;;;;;;;;;2.00;2.00;;;;;25.99;46.03;101320.25;5074745;28;45361;-77
2022/10/25 11:52:36;;;;;;;;;1.00;1.00;;;;;25.99;45.46;101311.25;5074078;28;45474;-78
2022/10/25 11:55:09;;;;;;;;;1.00;1.00;;;;;26.00;46.04;101304.81;5074748;28;45505;-77
2022/10/25 11:57:56;;;;;;;;;2.00;2.00;;;;;26.02;45.51;101310.91;5073054;28;45766;-77
2022/10/25 12:00:30;;;;;;;;;0.33;0.33;;;;;26.03;45.82;101299.00;5074461;28;45347;-78
2022/10/25 12:03:22;;;;;;;;;2.00;2.00;;;;;26.04;45.39;101307.00;5073168;28;45441;-78
2022/10/25 12:06:11;;;;;;;;;1.00;1.00;;;;;26.07;45.84;101305.78;5074646;27;46217;-78
2022/10/25 12:08:45;;;;;;;;;2.00;2.00;;;;;26.01;45.45;101293.75;5073218;28;45486;-80
2022/10/25 12:11:18;;;;;;;;;2.67;2.67;;;;;25.97;45.37;101297.84;5072099;27;45464;-75
2022/10/25 12:13:50;;;;;;;;;2.67;2.00;;;;;25.98;44.81;101288.66;5076690;27;45530;-75
2022/10/25 12:16:19;;;;;;;;;3.67;3.00;;;;;25.99;44.83;101290.34;5075880;28;46334;-75
2022/10/25 12:19:07;;;;;;;;;4.00;2.00;;;;;25.99;44.76;101293.06;5075754;28;45379;-75
2022/10/25 12:21:48;;;;;;;;;1.67;1.67;;;;;25.96;44.71;101281.69;5075532;28;45348;-74
2022/10/25 12:24:25;;;;;;;;;1.33;1.33;;;;;25.93;44.48;101282.88;5075283;28;45436;-75
2022/10/25 12:26:53;;;;;;;;;2.67;2.67;;;;;25.91;44.41;101282.19;5069390;27;46364;-76
2022/10/25 12:29:40;;;;;;;;;2.67;2.00;;;;;25.89;44.11;101273.34;5064905;28;45555;-75
2022/10/25 12:32:16;;;;;;;;;2.00;2.00;;;;;25.84;44.32;101270.31;5067116;28;46399;-88
2022/10/25 12:34:53;;;;;;;;;2.00;1.33;;;;;25.72;44.88;101264.38;5050153;28;45819;-87
2022/10/25 12:38:10;;;;;;;;;2.00;2.00;;;;;25.67;44.88;101255.88;5069752;28;47113;-83
2022/10/25 12:40:41;;;;;;;;;4.67;2.33;;;;;25.70;44.50;101253.66;5063221;28;45449;-80
2022/10/25 12:43:32;;;;;;;;;2.00;2.00;;;;;25.74;44.63;101254.16;5076157;28;45398;-80
2022/10/25 12:46:19;;;;;;;;;1.00;1.00;;;;;25.77;44.54;101242.94;5070474;27;47365;-82
2022/10/25 12:48:44;;;;;;;;;4.00;1.33;;;;;25.76;44.53;101239.38;5068990;27;45731;-80
2022/10/25 12:51:15;;;;;;;;;2.33;1.33;;;;;25.73;44.88;101230.72;5068424;28;45403;-86
2022/10/25 12:54:18;;;;;;;;;2.00;2.00;;;;;25.67;45.39;101236.84;5068157;27;45555;-79
2022/10/25 12:57:03;;;;;;;;;2.00;2.00;;;;;25.61;45.59;101232.94;5069723;28;45503;-76
2022/10/25 12:59:47;;;;;;;;;4.00;1.67;;;;;25.59;45.45;101222.22;5070850;27;45493;-77
2022/10/25 13:02:30;;;;;;;;;3.67;3.00;;;;;25.58;45.95;101220.53;5060751;28;45545;-81
2022/10/25 13:05:21;;;;;;;;;3.00;3.00;;;;;25.59;45.97;101216.78;5067389;28;45394;-79
2022/10/25 13:07:49;;;;;;;;;4.33;3.00;;;;;25.61;46.38;101208.47;5060340;28;45450;-77
2022/10/25 13:10:20;;;;;;;;;4.33;2.00;;;;;25.66;46.27;101211.53;5068538;27;46375;-76
2022/10/25 13:13:02;;;;;;;;;2.33;1.00;;;;;25.73;46.17;101209.84;5075334;27;45500;-75
2022/10/25 13:15:41;;;;;;;;;3.00;3.00;;;;;25.76;46.82;101192.31;5067500;28;45568;-77
2022/10/25 13:18:36;;;;;;;;;2.00;2.00;;;;;25.83;46.93;101187.03;5067156;27;45316;-81
2022/10/25 13:21:04;;;;;;;;;3.00;3.00;;;;;25.87;46.89;101183.78;5067787;27;46126;-79
2022/10/25 13:23:42;;;;;;;;;2.00;2.00;;;;;25.93;46.52;101187.69;5072018;28;45353;-78
2022/10/25 13:26:16;;;;;;;;;2.67;2.67;;;;;25.98;46.67;101182.59;5067160;28;45458;-80
2022/10/25 13:28:50;;;;;;;;;3.67;2.00;;;;;26.02;47.18;101175.78;5073321;28;45455;-85
2022/10/25 13:31:33;;;;;;;;;1.00;1.00;;;;;26.08;46.15;101176.09;5064925;28;45637;-79
2022/10/25 13:34:11;;;;;;;;;2.00;2.00;;;;;26.11;45.68;101170.31;5075480;28;45343;-80
2022/10/25 13:36:46;;;;;;;;;4.67;2.00;;;;;26.10;46.04;101177.63;5074806;28;45566;-78
2022/10/25 13:39:24;;;;;;;;;1.33;1.33;;;;;26.05;46.13;101164.56;5075395;28;45368;-79
2022/10/25 13:41:52;;;;;;;;;2.00;2.00;;;;;26.04;45.83;101165.56;5073655;28;45514;-79
2022/10/25 13:44:19;;;;;;;;;2.00;2.00;;;;;26.03;46.05;101161.16;5067967;28;45361;-81
2022/10/25 13:46:47;;;;;;;;;2.33;2.33;;;;;26.03;46.64;101155.72;5075593;27;45428;-78
2022/10/25 13:49:39;;;;;;;;;3.00;3.00;;;;;26.01;46.84;101149.59;5074284;28;45372;-78
2022/10/25 13:52:19;;;;;;;;;1.67;1.67;;;;;26.03;46.67;101150.28;5056732;27;45675;-79
2022/10/25 13:54:50;;;;;;;;;2.00;2.00;;;;;26.04;46.82;101143.78;5065553;28;45481;-77
2022/10/25 13:57:50;;;;;;;;;1.00;1.00;;;;;26.05;46.41;101134.63;5075144;28;45434;-79
2022/10/25 14:00:33;;;;;;;;;2.00;1.67;;;;;26.03;46.64;101136.66;5001321;28;45324;-80
2022/10/25 14:03:08;;;;;;;;;1.67;1.67;;;;;26.01;47.07;101130.56;5005844;28;46165;-79
2022/10/25 14:06:02;;;;;;;;;2.00;2.00;;;;;25.98;47.17;101128.19;4986983;28;45554;-82
2022/10/25 14:08:44;;;;;;;;;3.00;3.00;;;;;25.95;46.80;101114.94;5000529;28;45520;-79
2022/10/25 14:11:31;;;;;;;;;3.00;2.00;;;;;25.98;47.36;101128.19;5012876;28;45478;-78
2022/10/25 14:14:20;;;;;;;;;2.00;2.00;;;;;26.00;47.02;101119.88;5000395;28;47048;-78
2022/10/25 14:16:51;;;;;;;;;2.00;2.00;;;;;26.02;47.42;101115.09;5000280;28;45390;-78
2022/10/25 14:19:23;;;;;;;;;1.33;1.33;;;;;26.04;46.95;101115.78;4983551;28;45583;-80
2022/10/25 14:21:52;;;;;;;;;1.33;1.33;;;;;26.07;46.01;101111.84;4984630;28;45419;-79
2022/10/25 14:24:19;;;;;;;;;2.67;1.33;;;;;26.05;45.74;101095.69;4994491;28;46454;-82
2022/10/25 14:26:52;;;;;;;;;2.33;2.33;;;;;26.01;46.15;101095.22;4967228;28;45703;-79
2022/10/25 14:29:20;;;;;;;;;5.00;2.33;;;;;25.96;46.75;101094.91;5010307;28;45512;-79
2022/10/25 14:31:46;;;;;;;;;3.00;3.00;;;;;25.94;46.46;101099.66;4996574;28;45439;-78
2022/10/25 14:34:24;;;;;;;;;4.33;4.00;;;;;25.91;46.69;101095.41;5010653;28;46122;-78
2022/10/25 14:36:52;;;;;;;;;3.67;3.33;;;;;25.90;46.57;101085.56;5038325;28;45379;-79
2022/10/25 14:39:22;;;;;;;;;2.67;2.67;;;;;25.90;47.21;101082.84;5079149;28;45493;-80
2022/10/25 14:41:51;;;;;;;;;3.00;1.00;;;;;25.91;47.37;101083.69;5064358;28;45397;-79
2022/10/25 14:44:24;;;;;;;;;2.00;2.00;;;;;25.90;46.81;101084.72;5077829;28;46197;-79
2022/10/25 14:46:49;;;;;;;;;3.00;3.00;;;;;25.91;47.05;101073.66;5077749;28;45466;-79
2022/10/25 14:49:15;;;;;;;;;3.33;3.00;;;;;25.92;47.34;101069.91;5072330;28;45496;-80
2022/10/25 14:51:41;;;;;;;;;3.00;3.00;;;;;25.91;47.69;101073.66;5070310;27;45403;-79
2022/10/25 14:54:24;;;;;;;;;1.67;1.67;;;;;25.92;47.64;101069.06;5077200;28;46169;-79
2022/10/25 14:56:55;;;;;;;;;3.67;2.00;;;;;25.90;47.92;101071.09;5078831;28;45364;-77
2022/10/25 14:59:48;;;;;;;;;2.00;2.00;;;;;25.87;47.32;101058.72;5077084;28;45528;-78
2022/10/25 15:02:31;;;;;;;;;2.00;2.00;;;;;25.85;47.96;101054.47;5077533;28;45791;-78
2022/10/25 15:04:58;;;;;;;;;3.00;2.00;;;;;25.89;47.80;101064.84;5073118;28;46416;-78
2022/10/25 15:07:31;;;;;;;;;2.00;2.00;;;;;25.89;47.83;101067.56;5059677;28;45500;-79
2022/10/25 15:10:00;;;;;;;;;0.67;0.67;;;;;25.90;47.25;101058.38;5074049;28;45446;-85
2022/10/25 15:12:29;;;;;;;;;1.00;1.00;;;;;25.91;47.48;101056.47;5077772;28;45561;-85
2022/10/25 15:14:58;;;;;;;;;2.00;2.00;;;;;25.88;46.86;101054.97;5075277;28;46123;-91
2022/10/25 15:17:29;;;;;;;;;1.00;1.00;;;;;25.87;46.16;101056.00;5077181;28;45428;-83
2022/10/25 15:20:06;;;;;;;;;2.00;2.00;;;;;25.87;46.67;101052.44;5078117;28;45421;-79
2022/10/25 15:22:37;;;;;;;;;2.33;2.00;;;;;25.83;46.73;101054.66;5075580;27;45580;-75
2022/10/25 15:25:15;;;;;;;;;1.00;1.00;;;;;25.75;46.89;101041.13;5072627;28;45551;-78
2022/10/25 15:27:42;;;;;;;;;2.00;2.00;;;;;25.68;47.32;101040.97;5078012;28;45499;-76
2022/10/25 15:30:56;;;;;;;;;3.33;3.00;;;;;25.64;47.29;101039.63;5073037;28;45471;-78
2022/10/25 15:33:26;;;;;;;;;1.67;1.00;;;;;25.60;47.67;101033.69;5074118;28;45679;-83
2022/10/25 15:35:55;;;;;;;;;1.67;1.67;;;;;25.59;47.82;101029.25;5062607;27;45454;-81
2022/10/25 15:38:24;;;;;;;;;2.00;2.00;;;;;25.58;47.33;101022.13;5074967;28;45903;-81
2022/10/25 15:40:50;;;;;;;;;3.33;2.00;;;;;25.58;48.06;101024.03;5076547;28;45557;-80
2022/10/25 15:43:15;;;;;;;;;1.67;1.67;;;;;25.58;47.48;101013.16;5077506;28;45431;-80
2022/10/25 15:45:40;;;;;;;;;2.00;2.00;;;;;25.58;47.70;101008.56;5072877;28;46247;-79
2022/10/25 15:48:13;;;;;;;;;2.00;2.00;;;;;25.59;47.96;101006.69;5057737;28;45439;-81
2022/10/25 15:50:41;;;;;;;;;2.00;2.00;;;;;25.60;48.17;101013.81;5068941;27;45550;-81
2022/10/25 15:53:10;;;;;;;;;3.00;2.00;;;;;25.62;48.46;101003.59;5050154;28;46102;-79
2022/10/25 15:55:36;;;;;;;;;1.00;1.00;;;;;25.61;48.25;101005.50;5070047;27;46420;-80
2022/10/25 15:58:01;;;;;;;;;2.00;2.00;;;;;25.65;47.94;101005.97;5064666;28;45510;-77
2022/10/25 16:00:29;;;;;;;;;1.67;1.33;;;;;25.69;48.06;101007.31;5068612;28;45739;-78
2022/10/25 16:02:55;;;;;;;;;3.00;1.33;;;;;25.75;48.61;101008.50;5059920;28;45877;-78
2022/10/25 16:05:24;;;;;;;;;2.00;2.00;;;;;25.77;48.53;101009.16;5063376;27;45491;-81
2022/10/25 16:07:50;;;;;;;;;2.33;1.00;;;;;25.76;48.51;101002.84;5056150;27;46028;-82
2022/10/25 16:10:17;;;;;;;;;1.33;1.33;;;;;25.78;48.26;101003.53;5070763;28;47211;-81
2022/10/25 16:12:45;;;;;;;;;1.67;1.67;;;;;25.82;48.67;100995.88;5072391;28;45444;-79
2022/10/25 16:15:14;;;;;;;;;1.00;1.00;;;;;25.83;49.04;100983.13;5068134;28;45388;-79
2022/10/25 16:17:43;;;;;;;;;1.00;1.00;;;;;25.88;48.94;100989.72;5071034;28;45331;-80
2022/10/25 16:20:21;;;;;;;;;1.33;1.33;;;;;25.90;48.52;100989.53;5072219;28;46024;-77
2022/10/25 16:22:47;;;;;;;;;1.67;1.67;;;;;25.94;47.44;100990.03;5073487;28;44856;-82
2022/10/25 16:25:13;;;;;;;;;4.00;2.00;;;;;25.98;46.70;100973.19;5071135;27;45391;-82
2022/10/25 16:27:40;;;;;;;;;3.67;3.67;;;;;26.03;46.11;100975.34;5073138;27;45411;-82
2022/10/25 16:30:13;;;;;;;;;2.33;2.33;;;;;26.04;46.26;100974.34;5073394;27;45506;-82
2022/10/25 16:32:38;;;;;;;;;4.00;2.67;;;;;26.05;45.92;100967.88;5074139;28;45491;-82
2022/10/25 16:35:04;;;;;;;;;4.00;4.00;;;;;26.01;45.78;100964.69;5071604;28;46154;-81
2022/10/25 16:37:30;;;;;;;;;2.00;1.33;;;;;26.00;46.17;100957.53;5068747;28;45529;-83
2022/10/25 16:39:55;;;;;;;;;1.67;1.67;;;;;25.97;46.00;100955.19;5072869;27;45352;-78
2022/10/25 16:42:25;;;;;;;;;2.00;2.00;;;;;25.86;45.88;100945.56;5072462;28;58996;-79
2022/10/25 16:44:50;;;;;;;;;3.67;1.33;;;;;25.79;46.12;100952.75;5056254;28;46139;-78
2022/10/25 16:47:15;;;;;;;;;3.00;2.00;;;;;25.72;46.44;100939.03;5071606;28;45790;-79
2022/10/25 16:49:41;;;;;;;;;1.33;1.33;;;;;25.68;46.87;100932.25;5068135;27;45490;-83
2022/10/25 16:52:06;;;;;;;;;3.33;2.00;;;;;25.62;47.15;100925.63;5074123;27;59332;-81
2022/10/25 16:54:32;;;;;;;;;4.00;2.00;;;;;25.60;47.18;100918.69;5067853;28;45524;-78
2022/10/25 16:56:57;;;;;;;;;3.00;1.00;;;;;25.57;47.22;100903.59;5070436;27;45421;-82
2022/10/25 16:59:23;;;;;;;;;2.00;1.67;;;;;25.55;47.64;100902.94;5067231;28;45412;-82
2022/10/25 17:01:53;;;;;;;;;2.00;2.00;;;;;25.54;47.75;100903.91;5073185;28;54699;-82
2022/10/25 17:04:22;;;;;;;;;1.00;1.00;;;;;25.53;47.94;100900.34;5063909;28;46378;-83
